Time;durP1;ratioP1;P1;durP2;ratioP2;P2;SDS_P1;SDS_P2;PMS_P1;PMS_P2;Temp;Humidity;BMP_temperature;BMP_pressure;BME280_temperature;BME280_humidity;BME280_pressure;Samples;Min_cycle;Max_cycle;Signal;HPM_P1;HPM_P2
2021/06/28 00:00:25;;;;;;;11.50;7.38;;;;;;;;;;5013326;28;20021;-61
2021/06/28 00:02:50;;;;;;;13.77;7.80;;;;;;;;;;5013117;28;20022;-61
2021/06/28 00:05:17;;;;;;;14.18;7.80;;;;;;;;;;5013260;28;20040;-61
2021/06/28 00:07:44;;;;;;;18.38;8.15;;;;;;;;;;5012923;28;20060;-62
2021/06/28 00:10:11;;;;;;;28.23;9.02;;;;;;;;;;5013322;28;20033;-61
2021/06/28 00:12:37;;;;;;;16.23;7.97;;;;;;;;;;5012984;28;20010;-61
2021/06/28 00:15:04;;;;;;;15.80;8.50;;;;;;;;;;5012575;28;20532;-61
2021/06/28 00:17:31;;;;;;;16.80;8.25;;;;;;;;;;5012824;28;20474;-61
2021/06/28 00:19:57;;;;;;;17.75;8.25;;;;;;;;;;5012753;28;20041;-62
2021/06/28 00:22:23;;;;;;;12.18;7.85;;;;;;;;;;5013087;28;20049;-61
2021/06/28 00:24:48;;;;;;;14.38;7.93;;;;;;;;;;5012723;28;20370;-62
2021/06/28 00:27:14;;;;;;;17.15;7.72;;;;;;;;;;5012837;28;20033;-61
2021/06/28 00:29:40;;;;;;;10.95;6.78;;;;;;;;;;5012960;28;20087;-61
2021/06/28 00:32:07;;;;;;;11.73;6.57;;;;;;;;;;5012818;28;20017;-61
2021/06/28 00:34:32;;;;;;;10.50;7.18;;;;;;;;;;5012739;28;20389;-61
2021/06/28 00:36:57;;;;;;;9.23;6.93;;;;;;;;;;5012673;28;20029;-62
2021/06/28 00:39:24;;;;;;;9.50;6.60;;;;;;;;;;5012865;28;20497;-61
2021/06/28 00:41:50;;;;;;;12.55;6.32;;;;;;;;;;5012495;28;20010;-61
2021/06/28 00:44:16;;;;;;;9.10;6.35;;;;;;;;;;5012966;28;20018;-61
2021/06/28 00:46:41;;;;;;;9.27;6.20;;;;;;;;;;5012867;28;20361;-61
2021/06/28 00:49:07;;;;;;;10.60;6.70;;;;;;;;;;5012386;28;20019;-61
2021/06/28 00:51:34;;;;;;;15.25;6.63;;;;;;;;;;5012499;28;20064;-62
2021/06/28 00:54:00;;;;;;;9.55;5.97;;;;;;;;;;5013852;28;20064;-61
2021/06/28 00:56:26;;;;;;;13.48;6.93;;;;;;;;;;5016569;28;20018;-61
2021/06/28 00:58:52;;;;;;;15.82;7.22;;;;;;;;;;5016295;28;20101;-62
2021/06/28 01:01:17;;;;;;;10.82;6.43;;;;;;;;;;5016506;28;20474;-62
2021/06/28 01:03:44;;;;;;;12.38;6.70;;;;;;;;;;5016264;28;20076;-61
2021/06/28 01:06:11;;;;;;;9.82;6.70;;;;;;;;;;5016177;28;20056;-61
2021/06/28 01:08:38;;;;;;;8.60;7.05;;;;;;;;;;5016413;28;20028;-61
2021/06/28 01:11:03;;;;;;;10.00;6.93;;;;;;;;;;5016004;28;20059;-61
2021/06/28 01:13:31;;;;;;;14.15;7.07;;;;;;;;;;5016436;28;20017;-61
2021/06/28 01:15:57;;;;;;;10.57;6.22;;;;;;;;;;5016120;28;20029;-62
2021/06/28 01:18:23;;;;;;;10.82;6.20;;;;;;;;;;4998545;28;20033;-61
2021/06/28 01:20:49;;;;;;;8.75;6.47;;;;;;;;;;5015956;28;20018;-62
2021/06/28 01:23:17;;;;;;;10.38;7.43;;;;;;;;;;5015978;28;20027;-61
2021/06/28 01:25:44;;;;;;;9.75;6.60;;;;;;;;;;5016142;28;20100;-61
2021/06/28 01:28:11;;;;;;;9.52;7.18;;;;;;;;;;5020080;28;20026;-61
2021/06/28 01:30:38;;;;;;;9.48;6.82;;;;;;;;;;5023288;28;20018;-61
2021/06/28 01:33:04;;;;;;;8.43;6.18;;;;;;;;;;5015987;28;20014;-61
2021/06/28 01:35:30;;;;;;;10.45;6.72;;;;;;;;;;5015809;28;20049;-62
2021/06/28 01:37:56;;;;;;;12.15;7.85;;;;;;;;;;5016027;28;20509;-62
2021/06/28 01:40:22;;;;;;;12.15;7.40;;;;;;;;;;5015684;28;20029;-62
2021/06/28 01:42:49;;;;;;;14.65;6.95;;;;;;;;;;5015638;28;20029;-61
2021/06/28 01:45:20;;;;;;;11.65;6.80;;;;;;;;;;5015389;28;20474;-62
2021/06/28 01:47:47;;;;;;;14.00;7.25;;;;;;;;;;5015496;28;20100;-62
2021/06/28 01:50:13;;;;;;;13.15;7.95;;;;;;;;;;5015818;28;20022;-62
2021/06/28 01:52:40;;;;;;;12.27;7.63;;;;;;;;;;5015550;28;20029;-62
2021/06/28 01:55:08;;;;;;;10.88;7.18;;;;;;;;;;5015335;28;20703;-62
2021/06/28 01:57:34;;;;;;;12.33;7.60;;;;;;;;;;4998011;28;20104;-61
2021/06/28 02:00:01;;;;;;;9.68;7.20;;;;;;;;;;5015500;28;20030;-61
2021/06/28 02:02:27;;;;;;;10.15;7.15;;;;;;;;;;5015562;28;20013;-62
2021/06/28 02:04:52;;;;;;;8.80;6.65;;;;;;;;;;5014843;28;20018;-62
2021/06/28 02:07:18;;;;;;;10.73;7.18;;;;;;;;;;5014335;28;20054;-62
2021/06/28 02:09:44;;;;;;;14.27;8.88;;;;;;;;;;5014736;28;20018;-62
2021/06/28 02:12:10;;;;;;;13.60;7.22;;;;;;;;;;5014838;28;20030;-62
2021/06/28 02:14:36;;;;;;;13.90;7.70;;;;;;;;;;5015178;28;20018;-62
2021/06/28 02:17:04;;;;;;;15.57;7.65;;;;;;;;;;5014854;28;20497;-61
2021/06/28 02:19:30;;;;;;;12.70;7.30;;;;;;;;;;5014934;28;20068;-61
2021/06/28 02:21:56;;;;;;;9.23;6.20;;;;;;;;;;5014987;28;20026;-62
2021/06/28 02:24:22;;;;;;;10.18;7.05;;;;;;;;;;5015029;28;20014;-62
2021/06/28 02:26:48;;;;;;;12.32;7.47;;;;;;;;;;5014694;28;20021;-62
2021/06/28 02:29:15;;;;;;;11.88;7.45;;;;;;;;;;5014854;28;20076;-61
2021/06/28 02:31:42;;;;;;;15.63;7.95;;;;;;;;;;5014706;28;20167;-61
2021/06/28 02:34:08;;;;;;;11.98;7.60;;;;;;;;;;5014790;28;20117;-62
2021/06/28 02:36:34;;;;;;;12.52;6.93;;;;;;;;;;4997207;28;20068;-61
2021/06/28 02:39:00;;;;;;;12.98;7.43;;;;;;;;;;5014523;28;20037;-62
2021/06/28 02:41:26;;;;;;;11.60;6.75;;;;;;;;;;4997188;28;20397;-62
2021/06/28 02:43:53;;;;;;;16.50;6.32;;;;;;;;;;5014552;28;20383;-62
2021/06/28 02:46:19;;;;;;;9.88;6.50;;;;;;;;;;5014491;28;20026;-62
2021/06/28 02:48:45;;;;;;;13.40;7.03;;;;;;;;;;5014478;28;20020;-62
2021/06/28 02:51:12;;;;;;;10.98;6.50;;;;;;;;;;5014422;28;20509;-61
2021/06/28 02:53:37;;;;;;;11.57;6.72;;;;;;;;;;4996913;28;20022;-62
2021/06/28 02:56:16;;;;;;;11.02;6.50;;;;;;;;;;5014466;28;20018;-62
2021/06/28 02:58:48;;;;;;;13.52;6.70;;;;;;;;;;5014219;28;20026;-62
2021/06/28 03:01:14;;;;;;;12.68;7.00;;;;;;;;;;5013851;28;20482;-62
2021/06/28 03:03:40;;;;;;;10.18;7.05;;;;;;;;;;5014141;28;20120;-62
2021/06/28 03:06:07;;;;;;;20.80;8.13;;;;;;;;;;5018002;28;20050;-62
2021/06/28 03:08:33;;;;;;;20.23;8.57;;;;;;;;;;5033763;28;20501;-62
2021/06/28 03:11:01;;;;;;;17.23;8.63;;;;;;;;;;5033788;28;20034;-61
2021/06/28 03:13:27;;;;;;;14.02;8.13;;;;;;;;;;5033934;28;20025;-62
2021/06/28 03:15:52;;;;;;;11.60;8.00;;;;;;;;;;5033508;28;20397;-62
2021/06/28 03:18:18;;;;;;;14.82;7.13;;;;;;;;;;5033760;28;20501;-62
2021/06/28 03:20:44;;;;;;;13.90;7.25;;;;;;;;;;5033509;28;20390;-62
2021/06/28 03:23:10;;;;;;;12.77;7.18;;;;;;;;;;5033315;28;20020;-61
2021/06/28 03:25:36;;;;;;;12.85;8.18;;;;;;;;;;5033639;28;20026;-62
2021/06/28 03:28:02;;;;;;;16.80;8.18;;;;;;;;;;5033321;28;20009;-62
2021/06/28 03:30:28;;;;;;;13.25;7.57;;;;;;;;;;5033585;28;20009;-62
2021/06/28 03:32:54;;;;;;;10.18;7.20;;;;;;;;;;5033124;28;20040;-61
2021/06/28 03:35:20;;;;;;;11.15;6.82;;;;;;;;;;5033485;28;20480;-61
2021/06/28 03:37:46;;;;;;;9.77;6.93;;;;;;;;;;5033473;28;20048;-61
2021/06/28 03:40:13;;;;;;;13.68;7.45;;;;;;;;;;5033348;28;20134;-61
2021/06/28 03:42:39;;;;;;;14.13;6.95;;;;;;;;;;5033358;28;20103;-61
2021/06/28 03:45:06;;;;;;;13.82;7.22;;;;;;;;;;5032928;28;20109;-61
2021/06/28 03:47:32;;;;;;;14.05;7.50;;;;;;;;;;5033064;28;20041;-62
2021/06/28 03:49:58;;;;;;;12.35;7.47;;;;;;;;;;5034433;28;20017;-61
2021/06/28 03:52:25;;;;;;;12.85;7.93;;;;;;;;;;5035460;28;20041;-62
2021/06/28 03:54:51;;;;;;;12.00;7.10;;;;;;;;;;5033076;28;20018;-62
2021/06/28 03:57:17;;;;;;;13.23;7.75;;;;;;;;;;5032716;28;20062;-62
2021/06/28 03:59:42;;;;;;;13.32;7.68;;;;;;;;;;5032894;28;20063;-61
2021/06/28 04:02:08;;;;;;;11.35;7.53;;;;;;;;;;5032921;28;20424;-61
2021/06/28 04:04:34;;;;;;;16.13;6.72;;;;;;;;;;5033003;28;20025;-61
2021/06/28 04:06:59;;;;;;;11.40;6.93;;;;;;;;;;5021064;28;20057;-62
2021/06/28 04:09:25;;;;;;;11.43;7.80;;;;;;;;;;5013209;28;20378;-62
2021/06/28 04:11:52;;;;;;;16.90;8.77;;;;;;;;;;5013340;28;20056;-61
2021/06/28 04:14:18;;;;;;;15.27;7.80;;;;;;;;;;5012932;28;20022;-62
2021/06/28 04:16:43;;;;;;;11.80;6.72;;;;;;;;;;5012695;28;20014;-62
2021/06/28 04:19:10;;;;;;;12.95;6.55;;;;;;;;;;5012604;28;20045;-61
2021/06/28 04:21:36;;;;;;;11.93;7.00;;;;;;;;;;5012667;28;20078;-62
2021/06/28 04:24:03;;;;;;;14.25;6.53;;;;;;;;;;5012835;28;20017;-61
2021/06/28 04:26:31;;;;;;;15.57;6.85;;;;;;;;;;5012700;28;20022;-61
2021/06/28 04:28:56;;;;;;;13.77;5.90;;;;;;;;;;5012194;28;20057;-61
2021/06/28 04:31:22;;;;;;;15.65;6.20;;;;;;;;;;5012537;28;20061;-61
2021/06/28 04:33:48;;;;;;;12.68;7.20;;;;;;;;;;5012542;28;20022;-62
2021/06/28 04:36:14;;;;;;;12.38;6.65;;;;;;;;;;5012945;28;20032;-61
2021/06/28 04:38:39;;;;;;;8.30;6.00;;;;;;;;;;5012548;28;20041;-61
2021/06/28 04:41:06;;;;;;;12.38;6.47;;;;;;;;;;5012326;28;20486;-61
2021/06/28 04:43:32;;;;;;;11.48;5.70;;;;;;;;;;5012793;28;20038;-61
2021/06/28 04:45:59;;;;;;;8.63;6.25;;;;;;;;;;5012556;28;20022;-61
2021/06/28 04:48:25;;;;;;;9.35;5.70;;;;;;;;;;5012863;28;20037;-62
2021/06/28 04:50:51;;;;;;;9.77;5.22;;;;;;;;;;5012339;28;20500;-61
2021/06/28 04:53:17;;;;;;;10.95;5.22;;;;;;;;;;5012621;28;20025;-62
2021/06/28 04:55:44;;;;;;;8.95;5.28;;;;;;;;;;5012440;28;20021;-62
2021/06/28 04:58:10;;;;;;;10.15;6.15;;;;;;;;;;5012449;28;20366;-61
2021/06/28 05:00:36;;;;;;;8.38;5.88;;;;;;;;;;5012211;28;20099;-62
2021/06/28 05:03:03;;;;;;;8.35;5.28;;;;;;;;;;5012197;28;20021;-61
2021/06/28 05:05:29;;;;;;;12.57;5.78;;;;;;;;;;5012227;28;20056;-62
2021/06/28 05:07:56;;;;;;;14.35;5.70;;;;;;;;;;5012196;28;20046;-61
2021/06/28 05:10:24;;;;;;;9.65;5.22;;;;;;;;;;5012587;28;20050;-62
2021/06/28 05:12:50;;;;;;;7.90;5.22;;;;;;;;;;5012232;28;20022;-62
2021/06/28 05:15:15;;;;;;;10.98;5.25;;;;;;;;;;5012106;28;20117;-62
2021/06/28 05:17:42;;;;;;;10.82;5.05;;;;;;;;;;5012915;28;20493;-61
2021/06/28 05:20:10;;;;;;;5.70;4.90;;;;;;;;;;5012082;28;20030;-61
2021/06/28 05:22:36;;;;;;;5.50;4.10;;;;;;;;;;5012173;28;20108;-61
2021/06/28 05:25:01;;;;;;;7.75;5.18;;;;;;;;;;5011857;28;20060;-62
2021/06/28 05:27:27;;;;;;;8.73;4.90;;;;;;;;;;5012227;28;20037;-61
2021/06/28 05:29:56;;;;;;;9.38;4.47;;;;;;;;;;5011975;28;20030;-62
2021/06/28 05:32:24;;;;;;;6.78;4.85;;;;;;;;;;5012162;28;20458;-62
2021/06/28 05:34:50;;;;;;;7.60;5.25;;;;;;;;;;5012295;28;20071;-61
2021/06/28 05:37:17;;;;;;;6.93;4.82;;;;;;;;;;5011827;28;20033;-62
2021/06/28 05:39:43;;;;;;;8.93;4.97;;;;;;;;;;5012100;28;20394;-62
2021/06/28 05:42:09;;;;;;;9.20;5.53;;;;;;;;;;5014938;28;20017;-62
2021/06/28 05:44:35;;;;;;;11.15;5.30;;;;;;;;;;5015414;28;20010;-62
2021/06/28 05:47:01;;;;;;;30.23;4.72;;;;;;;;;;5015523;28;20032;-61
2021/06/28 05:49:26;;;;;;;9.43;4.28;;;;;;;;;;5015793;28;20109;-61
2021/06/28 05:51:52;;;;;;;7.90;4.65;;;;;;;;;;5015479;28;20026;-61
2021/06/28 05:54:18;;;;;;;14.88;4.80;;;;;;;;;;5015323;28;20525;-61
2021/06/28 05:56:44;;;;;;;9.45;4.30;;;;;;;;;;5015565;28;20117;-62
2021/06/28 05:59:10;;;;;;;6.40;4.65;;;;;;;;;;5015102;28;20029;-61
2021/06/28 06:01:36;;;;;;;21.13;4.88;;;;;;;;;;5012319;28;20368;-63
2021/06/28 06:04:02;;;;;;;6.95;4.10;;;;;;;;;;5009065;28;20597;-62
2021/06/28 06:06:27;;;;;;;7.10;4.47;;;;;;;;;;5015541;28;20124;-62
2021/06/28 06:08:53;;;;;;;16.50;5.30;;;;;;;;;;5032649;28;20049;-62
2021/06/28 06:11:18;;;;;;;11.13;4.75;;;;;;;;;;5031246;28;20048;-62
2021/06/28 06:13:45;;;;;;;12.88;4.28;;;;;;;;;;5033583;28;20060;-62
2021/06/28 06:16:11;;;;;;;11.73;4.07;;;;;;;;;;5036719;28;20083;-63
2021/06/28 06:18:36;;;;;;;8.63;3.90;;;;;;;;;;5032866;28;20018;-63
2021/06/28 06:21:01;;;;;;;7.95;4.45;;;;;;;;;;5031444;28;20024;-62
2021/06/28 06:23:27;;;;;;;7.47;3.88;;;;;;;;;;5031153;28;20032;-63
2021/06/28 06:25:53;;;;;;;5.40;3.85;;;;;;;;;;5033666;28;20478;-64
2021/06/28 06:28:19;;;;;;;5.55;4.15;;;;;;;;;;5032296;28;20021;-62
2021/06/28 06:30:45;;;;;;;12.20;4.10;;;;;;;;;;5033129;28;20079;-63
2021/06/28 06:33:10;;;;;;;9.23;4.20;;;;;;;;;;5033557;28;20053;-63
2021/06/28 06:35:36;;;;;;;7.47;3.92;;;;;;;;;;5034164;28;20033;-63
2021/06/28 06:38:02;;;;;;;11.43;4.13;;;;;;;;;;5033892;28;20060;-63
2021/06/28 06:40:28;;;;;;;9.98;4.22;;;;;;;;;;5033521;28;20041;-62
2021/06/28 06:42:54;;;;;;;8.82;4.28;;;;;;;;;;5033781;28;20481;-63
2021/06/28 06:45:20;;;;;;;10.68;3.75;;;;;;;;;;5033614;28;20013;-65
2021/06/28 06:47:46;;;;;;;8.95;4.13;;;;;;;;;;5033444;28;20013;-65
2021/06/28 06:50:12;;;;;;;12.10;4.07;;;;;;;;;;5033666;28;20021;-65
2021/06/28 06:52:39;;;;;;;8.85;4.30;;;;;;;;;;5030763;28;20025;-65
2021/06/28 06:55:06;;;;;;;8.40;4.07;;;;;;;;;;5030022;28;20017;-65
2021/06/28 06:57:32;;;;;;;8.73;4.50;;;;;;;;;;5026686;28;20021;-65
2021/06/28 06:59:58;;;;;;;10.95;3.53;;;;;;;;;;5032713;28;20025;-65
2021/06/28 07:02:23;;;;;;;9.10;3.75;;;;;;;;;;5035769;28;20041;-67
2021/06/28 07:04:48;;;;;;;10.55;3.45;;;;;;;;;;5033393;28;20021;-62
2021/06/28 07:07:14;;;;;;;7.28;3.00;;;;;;;;;;5026870;28;20453;-65
2021/06/28 07:09:39;;;;;;;8.57;2.90;;;;;;;;;;5019606;28;20044;-65
2021/06/28 07:12:05;;;;;;;251.85;14.15;;;;;;;;;;5027316;28;20018;-72
2021/06/28 07:14:31;;;;;;;7.03;2.72;;;;;;;;;;5029452;28;20528;-73
2021/06/28 07:16:56;;;;;;;5.35;2.67;;;;;;;;;;5030076;28;20087;-75
2021/06/28 07:19:22;;;;;;;4.80;2.97;;;;;;;;;;5015486;28;20494;-75
2021/06/28 07:21:49;;;;;;;5.50;2.78;;;;;;;;;;5030620;28;20096;-73
2021/06/28 07:24:20;;;;;;;7.38;2.72;;;;;;;;;;5010406;28;20083;-73
2021/06/28 07:26:48;;;;;;;5.63;3.05;;;;;;;;;;5032015;28;20013;-75
2021/06/28 07:29:14;;;;;;;4.20;2.70;;;;;;;;;;5013408;28;20017;-76
2021/06/28 07:31:40;;;;;;;5.35;2.75;;;;;;;;;;5029605;28;20524;-77
2021/06/28 07:34:05;;;;;;;3.75;2.65;;;;;;;;;;5030712;28;20013;-71
2021/06/28 07:36:31;;;;;;;4.93;2.42;;;;;;;;;;5031166;28;20101;-72
2021/06/28 07:39:02;;;;;;;8.18;3.00;;;;;;;;;;5030552;28;20040;-75
2021/06/28 07:41:27;;;;;;;4.18;2.22;;;;;;;;;;5031015;28;20478;-70
2021/06/28 07:43:53;;;;;;;4.63;2.33;;;;;;;;;;5031873;28;20024;-73
2021/06/28 07:46:18;;;;;;;8.07;2.30;;;;;;;;;;5013295;28;20493;-71
2021/06/28 07:48:44;;;;;;;3.38;1.88;;;;;;;;;;5031638;28;20033;-72
2021/06/28 07:51:09;;;;;;;5.22;2.13;;;;;;;;;;5013711;28;20056;-77
2021/06/28 07:53:35;;;;;;;3.05;2.03;;;;;;;;;;5031530;28;20025;-74
2021/06/28 07:56:14;;;;;;;7.05;2.47;;;;;;;;;;5011571;28;20505;-75
2021/06/28 07:59:05;;;;;;;7.60;2.47;;;;;;;;;;5031051;28;20037;-74
2021/06/28 08:01:31;;;;;;;2.28;1.83;;;;;;;;;;5013174;28;20514;-72
2021/06/28 08:03:56;;;;;;;3.80;1.70;;;;;;;;;;5028516;28;20143;-75
2021/06/28 08:06:22;;;;;;;3.85;1.73;;;;;;;;;;5033496;28;20057;-75
2021/06/28 08:08:50;;;;;;;4.90;1.88;;;;;;;;;;5021757;28;20034;-74
2021/06/28 08:11:16;;;;;;;3.10;1.75;;;;;;;;;;5029860;28;20121;-75
2021/06/28 08:13:44;;;;;;;3.10;1.73;;;;;;;;;;4997833;28;20021;-75
2021/06/28 08:16:10;;;;;;;2.45;1.70;;;;;;;;;;5030956;28;20104;-74
2021/06/28 08:18:48;;;;;;;3.10;1.83;;;;;;;;;;5012541;28;20109;-74
2021/06/28 08:21:14;;;;;;;1.75;1.63;;;;;;;;;;5031093;28;20026;-77
2021/06/28 08:23:40;;;;;;;2.58;1.77;;;;;;;;;;5011071;28;20025;-75
2021/06/28 08:26:06;;;;;;;2.22;1.45;;;;;;;;;;5034831;28;20025;-76
2021/06/28 08:28:32;;;;;;;3.25;1.90;;;;;;;;;;5035037;28;20493;-77
2021/06/28 08:30:58;;;;;;;5.00;1.70;;;;;;;;;;5032302;28;20013;-75
2021/06/28 08:33:24;;;;;;;5.07;1.42;;;;;;;;;;5016687;28;20021;-75
2021/06/28 08:35:50;;;;;;;1.65;1.50;;;;;;;;;;5037306;28;20473;-79
2021/06/28 08:38:16;;;;;;;2.00;1.60;;;;;;;;;;5043133;28;20009;-78
2021/06/28 08:40:41;;;;;;;2.25;1.40;;;;;;;;;;5037786;28;20087;-79
2021/06/28 08:43:08;;;;;;;2.67;1.60;;;;;;;;;;5035559;28;20017;-78
2021/06/28 08:45:35;;;;;;;1.48;1.38;;;;;;;;;;5033984;28;20125;-77
2021/06/28 08:48:00;;;;;;;8.52;2.00;;;;;;;;;;5030346;28;20454;-75
2021/06/28 08:50:26;;;;;;;2.58;1.60;;;;;;;;;;5028041;28;20053;-72
2021/06/28 08:52:53;;;;;;;3.13;1.88;;;;;;;;;;5029098;28;20022;-71
2021/06/28 08:55:18;;;;;;;1.65;1.40;;;;;;;;;;5015232;28;20025;-72
2021/06/28 08:57:44;;;;;;;3.78;1.48;;;;;;;;;;5020545;28;20024;-72
2021/06/28 09:00:10;;;;;;;3.33;1.58;;;;;;;;;;5035455;28;20037;-70
2021/06/28 09:02:40;;;;;;;3.30;1.30;;;;;;;;;;5041549;28;20057;-73
2021/06/28 09:05:06;;;;;;;7.15;1.60;;;;;;;;;;5030541;28;20148;-72
2021/06/28 09:07:32;;;;;;;1.63;1.52;;;;;;;;;;5006894;28;20120;-69
2021/06/28 09:09:58;;;;;;;1.42;1.33;;;;;;;;;;5033644;28;20049;-72
2021/06/28 09:12:23;;;;;;;1.65;1.40;;;;;;;;;;5035630;28;20010;-73
2021/06/28 09:14:50;;;;;;;1.58;1.48;;;;;;;;;;5037729;28;20028;-72
2021/06/28 09:17:26;;;;;;;3.05;1.40;;;;;;;;;;5022683;28;20056;-68
2021/06/28 09:20:10;;;;;;;2.05;1.30;;;;;;;;;;5041363;28;20036;-70
2021/06/28 09:22:36;;;;;;;4.72;1.40;;;;;;;;;;5033440;28;20009;-72
2021/06/28 09:25:02;;;;;;;3.92;1.52;;;;;;;;;;5033276;28;20016;-70
2021/06/28 09:27:30;;;;;;;3.60;1.48;;;;;;;;;;5032048;28;20092;-69
2021/06/28 09:30:00;;;;;;;2.47;1.70;;;;;;;;;;5033325;28;20017;-71
2021/06/28 09:32:26;;;;;;;1.60;1.50;;;;;;;;;;5032096;28;20030;-68
2021/06/28 09:34:53;;;;;;;2.17;1.58;;;;;;;;;;5034184;28;20133;-71
2021/06/28 09:37:20;;;;;;;6.13;1.53;;;;;;;;;;5033113;28;20054;-71
2021/06/28 09:39:48;;;;;;;1.50;1.40;;;;;;;;;;5015713;28;20120;-72
2021/06/28 09:42:21;;;;;;;3.03;1.75;;;;;;;;;;5014447;28;20017;-70
2021/06/28 09:45:02;;;;;;;2.35;1.27;;;;;;;;;;5031216;28;20068;-70
2021/06/28 09:47:35;;;;;;;1.63;1.48;;;;;;;;;;5024491;28;20025;-72
2021/06/28 09:50:06;;;;;;;4.70;2.22;;;;;;;;;;5034008;28;20010;-71
2021/06/28 09:52:34;;;;;;;1.58;1.48;;;;;;;;;;5015916;28;20382;-71
2021/06/28 09:55:18;;;;;;;4.88;1.30;;;;;;;;;;5033653;28;20014;-70
2021/06/28 09:58:02;;;;;;;5.97;1.55;;;;;;;;;;5033951;28;20013;-71
2021/06/28 10:00:28;;;;;;;4.28;1.60;;;;;;;;;;5033205;28;20032;-71
2021/06/28 10:02:53;;;;;;;1.52;1.30;;;;;;;;;;5033506;28;20005;-68
2021/06/28 10:05:23;;;;;;;2.40;1.58;;;;;;;;;;5033796;28;20493;-69
2021/06/28 10:07:48;;;;;;;2.22;1.70;;;;;;;;;;4997191;28;20520;-70
2021/06/28 10:10:28;;;;;;;4.13;1.65;;;;;;;;;;5013869;28;20026;-70
2021/06/28 10:13:00;;;;;;;1.85;1.65;;;;;;;;;;4997895;28;20073;-68
2021/06/28 10:15:27;;;;;;;3.83;1.70;;;;;;;;;;5013228;28;20056;-71
2021/06/28 10:17:53;;;;;;;1.95;1.77;;;;;;;;;;5014445;28;20433;-70
2021/06/28 10:20:20;;;;;;;3.42;1.35;;;;;;;;;;5013093;28;20033;-70
2021/06/28 10:22:46;;;;;;;3.35;1.55;;;;;;;;;;4999514;28;20075;-69
2021/06/28 10:25:12;;;;;;;2.00;1.77;;;;;;;;;;5001845;28;20017;-68
2021/06/28 10:27:38;;;;;;;2.17;1.42;;;;;;;;;;5008125;28;20030;-68
2021/06/28 10:30:06;;;;;;;1.45;1.35;;;;;;;;;;5007784;28;20164;-68
2021/06/28 10:32:32;;;;;;;1.90;1.70;;;;;;;;;;5012364;28;20029;-69
2021/06/28 10:34:57;;;;;;;4.75;1.85;;;;;;;;;;5004167;28;20048;-67
2021/06/28 10:37:35;;;;;;;5.13;1.92;;;;;;;;;;5006367;28;20112;-74
2021/06/28 10:40:09;;;;;;;3.47;1.47;;;;;;;;;;5008442;28;20531;-69
2021/06/28 10:42:36;;;;;;;4.15;1.75;;;;;;;;;;5012441;28;20255;-73
2021/06/28 10:45:03;;;;;;;3.83;1.85;;;;;;;;;;4999763;28;20026;-70
2021/06/28 10:47:30;;;;;;;2.00;1.23;;;;;;;;;;5002328;28;20015;-70
2021/06/28 10:49:56;;;;;;;1.60;1.43;;;;;;;;;;4996113;28;20037;-72
2021/06/28 10:52:42;;;;;;;4.68;1.27;;;;;;;;;;5008953;28;20029;-74
2021/06/28 10:55:20;;;;;;;1.48;1.38;;;;;;;;;;5001928;28;20479;-69
2021/06/28 10:57:52;;;;;;;2.80;1.48;;;;;;;;;;5013961;28;20112;-70
2021/06/28 11:00:17;;;;;;;2.85;1.88;;;;;;;;;;5019686;28;20037;-69
2021/06/28 11:02:43;;;;;;;3.58;2.10;;;;;;;;;;5023548;28;20425;-68
2021/06/28 11:05:09;;;;;;;1.70;1.35;;;;;;;;;;5012271;28;20204;-68
2021/06/28 11:07:42;;;;;;;4.05;1.42;;;;;;;;;;5028253;28;20111;-69
2021/06/28 11:10:12;;;;;;;2.05;1.55;;;;;;;;;;5032454;28;20550;-69
2021/06/28 11:12:37;;;;;;;2.70;1.80;;;;;;;;;;5031610;28;20527;-68
2021/06/28 11:15:23;;;;;;;2.15;1.70;;;;;;;;;;5031865;28;20017;-69
2021/06/28 11:17:51;;;;;;;2.63;1.52;;;;;;;;;;5026292;28;20461;-67
2021/06/28 11:20:26;;;;;;;1.80;1.30;;;;;;;;;;5019330;28;20037;-67
2021/06/28 11:23:01;;;;;;;3.55;2.08;;;;;;;;;;5046081;28;20036;-67
2021/06/28 11:25:34;;;;;;;4.18;1.48;;;;;;;;;;5037743;28;20378;-67
2021/06/28 11:28:13;;;;;;;6.22;3.08;;;;;;;;;;5039121;28;20489;-67
2021/06/28 11:30:45;;;;;;;2.05;1.85;;;;;;;;;;5038784;28;20028;-66
2021/06/28 11:33:13;;;;;;;2.80;1.42;;;;;;;;;;5032115;28;20029;-75
2021/06/28 11:35:46;;;;;;;3.42;2.03;;;;;;;;;;5032041;28;20061;-74
2021/06/28 11:38:25;;;;;;;4.72;2.17;;;;;;;;;;5031458;28;20024;-74
2021/06/28 11:40:52;;;;;;;2.72;2.03;;;;;;;;;;5033060;28;20024;-70
2021/06/28 11:43:37;;;;;;;8.20;2.55;;;;;;;;;;5030907;28;20028;-74
2021/06/28 11:46:03;;;;;;;77.78;41.38;;;;;;;;;;5029512;28;20038;-72
2021/06/28 11:51:24;;;;;;;3.70;1.48;;;;;;;;;;5189227;27;20388;-75
2021/06/28 11:53:51;;;;;;;396.83;357.70;;;;;;;;;;5150493;27;20034;-73
2021/06/28 11:56:32;;;;;;;155.68;20.92;;;;;;;;;;5167703;27;20394;-76
2021/06/28 11:59:04;;;;;;;1.65;1.55;;;;;;;;;;5168366;27;20089;-74
2021/06/28 12:01:32;;;;;;;5.63;1.67;;;;;;;;;;5167477;27;20058;-73
2021/06/28 12:03:57;;;;;;;4.53;1.58;;;;;;;;;;5152027;27;20015;-79
2021/06/28 12:06:25;;;;;;;2.33;1.60;;;;;;;;;;5148234;27;20029;-76
2021/06/28 12:09:03;;;;;;;4.40;1.42;;;;;;;;;;5142058;27;20030;-74
2021/06/28 12:11:30;;;;;;;1.33;1.23;;;;;;;;;;5149157;27;20042;-72
2021/06/28 12:13:55;;;;;;;2.47;1.77;;;;;;;;;;5149810;27;20099;-73
2021/06/28 12:16:22;;;;;;;3.05;1.50;;;;;;;;;;5149526;27;20051;-72
2021/06/28 12:18:58;;;;;;;2.97;1.70;;;;;;;;;;5146749;27;20093;-73
2021/06/28 12:21:27;;;;;;;1.42;1.33;;;;;;;;;;5123830;27;20524;-72
2021/06/28 12:24:00;;;;;;;3.15;1.70;;;;;;;;;;5131196;27;20022;-70
2021/06/28 12:26:25;;;;;;;2.40;1.70;;;;;;;;;;5148326;27;20029;-73
2021/06/28 12:28:51;;;;;;;4.07;1.52;;;;;;;;;;5149010;27;20027;-73
2021/06/28 12:31:16;;;;;;;1.92;1.52;;;;;;;;;;5148096;27;20018;-67
2021/06/28 12:33:42;;;;;;;3.70;1.42;;;;;;;;;;5147439;27;20030;-68
2021/06/28 12:36:07;;;;;;;3.13;1.70;;;;;;;;;;5147550;27;20810;-69
2021/06/28 12:38:33;;;;;;;1.35;1.25;;;;;;;;;;5135163;27;20023;-66
2021/06/28 12:40:58;;;;;;;1.90;1.55;;;;;;;;;;5148545;27;20019;-68
2021/06/28 12:43:25;;;;;;;3.55;1.50;;;;;;;;;;5148976;27;20042;-70
2021/06/28 12:45:52;;;;;;;3.58;1.40;;;;;;;;;;5149467;27;20033;-68
2021/06/28 12:48:20;;;;;;;6.55;1.95;;;;;;;;;;5147616;27;20015;-70
2021/06/28 12:50:50;;;;;;;3.30;1.33;;;;;;;;;;5147789;27;20042;-66
2021/06/28 12:53:17;;;;;;;2.33;1.50;;;;;;;;;;5146823;27;20384;-71
2021/06/28 12:55:43;;;;;;;5.22;1.52;;;;;;;;;;5148027;27;20080;-67
2021/06/28 12:58:13;;;;;;;1.48;1.30;;;;;;;;;;5146861;27;20018;-72
2021/06/28 13:00:43;;;;;;;2.15;1.33;;;;;;;;;;5143734;27;20057;-69
2021/06/28 13:03:10;;;;;;;2.00;1.45;;;;;;;;;;5116309;27;20094;-70
2021/06/28 13:05:37;;;;;;;2.05;1.45;;;;;;;;;;5131075;27;20019;-70
2021/06/28 13:08:16;;;;;;;1.40;1.30;;;;;;;;;;5123860;27;20026;-70
2021/06/28 13:10:41;;;;;;;;;;;;;;;;;;5133970;27;20062;-71
2021/06/28 13:13:20;;;;;;;1.50;1.40;;;;;;;;;;5132646;27;20383;-70
2021/06/28 13:16:05;;;;;;;4.25;1.27;;;;;;;;;;5132076;27;20525;-72
2021/06/28 13:18:31;;;;;;;1.70;1.20;;;;;;;;;;5134811;27;20361;-71
2021/06/28 13:20:56;;;;;;;1.40;1.30;;;;;;;;;;5134015;27;20007;-71
2021/06/28 13:23:24;;;;;;;1.70;1.38;;;;;;;;;;5133972;27;20019;-73
2021/06/28 13:25:49;;;;;;;;;;;;;;;;;;5134314;27;20097;-72
2021/06/28 13:28:16;;;;;;;2.20;1.40;;;;;;;;;;5134432;27;20410;-72
2021/06/28 13:30:41;;;;;;;2.17;1.45;;;;;;;;;;5133665;27;20039;-73
2021/06/28 13:33:12;;;;;;;2.58;1.30;;;;;;;;;;5133650;27;20019;-73
2021/06/28 13:35:40;;;;;;;2.30;1.40;;;;;;;;;;5133643;27;20023;-71
2021/06/28 13:38:07;;;;;;;1.85;1.70;;;;;;;;;;5134602;27;20031;-79
2021/06/28 13:40:32;;;;;;;1.33;1.13;;;;;;;;;;5135053;27;20027;-77
2021/06/28 13:42:57;;;;;;;3.10;1.30;;;;;;;;;;5119338;27;20364;-78
2021/06/28 13:45:25;;;;;;;1.70;1.25;;;;;;;;;;5133497;27;20019;-74
2021/06/28 13:48:09;;;;;;;3.10;1.33;;;;;;;;;;5133518;27;20624;-73
2021/06/28 13:50:36;;;;;;;3.20;1.30;;;;;;;;;;5132285;27;20129;-69
2021/06/28 13:53:05;;;;;;;1.55;1.20;;;;;;;;;;5132973;27;20028;-70
2021/06/28 13:55:30;;;;;;;1.33;1.23;;;;;;;;;;5134107;27;20041;-70
2021/06/28 13:57:57;;;;;;;2.53;1.17;;;;;;;;;;5133560;27;20452;-70
2021/06/28 14:00:26;;;;;;;1.20;1.10;;;;;;;;;;5132503;27;20019;-70
2021/06/28 14:02:51;;;;;;;;;;;;;;;;;;5116713;27;20050;-69
2021/06/28 14:05:16;;;;;;;6.90;1.50;;;;;;;;;;5131724;27;19950;-67
2021/06/28 14:07:42;;;;;;;10.50;1.58;;;;;;;;;;5133142;27;20391;-68
2021/06/28 14:10:09;;;;;;;2.15;1.20;;;;;;;;;;5133346;27;20027;-70
2021/06/28 14:12:35;;;;;;;2.20;1.20;;;;;;;;;;5131116;27;20563;-67
2021/06/28 14:15:00;;;;;;;3.78;1.30;;;;;;;;;;5132827;27;20051;-69
2021/06/28 14:17:26;;;;;;;1.73;1.45;;;;;;;;;;5131943;27;20022;-68
2021/06/28 14:19:51;;;;;;;1.73;1.33;;;;;;;;;;5132637;27;20015;-70
2021/06/28 14:22:16;;;;;;;2.00;1.20;;;;;;;;;;5132526;27;20020;-69
2021/06/28 14:24:42;;;;;;;2.00;1.25;;;;;;;;;;5132470;27;20027;-73
2021/06/28 14:27:07;;;;;;;7.63;1.45;;;;;;;;;;5132199;27;20015;-71
2021/06/28 14:29:34;;;;;;;26.67;2.30;;;;;;;;;;5131661;27;20062;-70
2021/06/28 14:32:00;;;;;;;3.55;1.35;;;;;;;;;;5133280;27;20114;-71
2021/06/28 14:34:26;;;;;;;1.92;1.33;;;;;;;;;;5133694;27;20102;-71
2021/06/28 14:36:52;;;;;;;1.30;1.20;;;;;;;;;;5133178;27;20022;-70
2021/06/28 14:39:19;;;;;;;2.45;1.25;;;;;;;;;;5133091;27;20033;-70
2021/06/28 14:41:44;;;;;;;1.10;1.00;;;;;;;;;;5132482;27;20048;-70